PWSweather.com
Personal Weather Stations
Station Observations
OBSERWACJEMETEO
Skórowo, SkorowoPL 76-230

SkórowoSkorowoPL 76-230

Lat: 54.5030556, Lon: 17.5277777

Elevation: 77

Station Type: WH2080

http://obserwacjemeteo.eu/

High Low Average
Temperature 73.0°F22.8°C 51.6°F10.9°C 62.8°F17.1°C
Dew Point 64.1°F17.8°C 48.1°F8.9°C 55.6°F13.1°C
Winds 3.1 mph 5.0 kmh Calm Calm 1.0 mph ESE1.6 kmh ESE
Wind Gusts 6.9 mph11.1 kmh -- 2.0 mph3.2 kmh
Humidity 99% 45% 79%
Pressure 30.15 in1021.0 mb 29.87 in1011.5 mb -
Precipitation 0.07 in1.8 mm - -
Hour Temp Dew Point Humidity Winds Wind Gusts Pressure Precip Precip Rate Daily Precip Total
12:00 AM 64.4°F18.0°C 64.1°F17.8°C 99% Calm Calm 2.2 mph3.5 kmh 29.87 in1011.5 mb 0.01 in0.3 mm 0.00 in0.0 mm 0.01 in0.3 mm
12:10 AM 64.2°F17.9°C 64.0°F17.8°C 99% Calm Calm 1.6 mph2.6 kmh 29.87 in1011.5 mb 0.01 in0.3 mm 0.00 in0.0 mm 0.01 in0.3 mm
12:20 AM 63.9°F17.7°C 63.6°F17.6°C 99% Calm Calm 1.6 mph2.6 kmh 29.87 in1011.5 mb 0.01 in0.3 mm 0.00 in0.0 mm 0.01 in0.3 mm
12:30 AM 63.5°F17.5°C 63.2°F17.3°C 99% Calm Calm 2.2 mph3.5 kmh 29.87 in1011.5 mb 0.00 in0.0 mm 0.00 in0.0 mm 0.01 in0.3 mm
12:40 AM 63.3°F17.4°C 63.1°F17.3°C 99% 0.7 mph WSW1.1 kmh WSW 3.1 mph5.0 kmh 29.87 in1011.5 mb 0.00 in0.0 mm 0.00 in0.0 mm 0.01 in0.3 mm
12:50 AM 63.3°F17.4°C 63.1°F17.3°C 99% Calm Calm 1.6 mph2.6 kmh 29.89 in1012.2 mb 0.00 in0.0 mm 0.00 in0.0 mm 0.01 in0.3 mm
01:00 AM 63.0°F17.2°C 62.7°F17.1°C 99% Calm Calm 1.6 mph2.6 kmh 29.89 in1012.2 mb 0.00 in0.0 mm 0.00 in0.0 mm 0.01 in0.3 mm
01:10 AM 63.0°F17.2°C 62.7°F17.1°C 99% Calm Calm 1.6 mph2.6 kmh 29.89 in1012.2 mb 0.00 in0.0 mm 0.00 in0.0 mm 0.01 in0.3 mm
01:20 AM 63.0°F17.2°C 62.7°F17.1°C 99% Calm Calm 1.6 mph2.6 kmh 29.89 in1012.2 mb 0.00 in0.0 mm 0.00 in0.0 mm 0.01 in0.3 mm
01:30 AM 63.0°F17.2°C 62.7°F17.1°C 99% 0.7 mph W1.1 kmh W 1.6 mph2.6 kmh 29.89 in1012.2 mb 0.00 in0.0 mm 0.00 in0.0 mm 0.01 in0.3 mm
01:40 AM 62.8°F17.1°C 62.5°F16.9°C 99% Calm Calm 1.6 mph2.6 kmh 29.89 in1012.2 mb 0.00 in0.0 mm 0.00 in0.0 mm 0.01 in0.3 mm
01:50 AM 62.4°F16.9°C 62.2°F16.8°C 99% Calm Calm 0.7 mph1.1 kmh 29.90 in1012.5 mb 0.00 in0.0 mm 0.00 in0.0 mm 0.01 in0.3 mm
02:00 AM 62.6°F17.0°C 62.3°F16.8°C 99% Calm Calm 0.7 mph1.1 kmh 29.90 in1012.5 mb 0.00 in0.0 mm 0.00 in0.0 mm 0.01 in0.3 mm
02:10 AM 62.8°F17.1°C 62.5°F16.9°C 99% 0.7 mph WSW1.1 kmh WSW 1.6 mph2.6 kmh 29.90 in1012.5 mb 0.00 in0.0 mm 0.00 in0.0 mm 0.01 in0.3 mm
02:20 AM 63.0°F17.2°C 62.7°F17.1°C 99% 1.6 mph SW2.6 kmh SW 2.2 mph3.5 kmh 29.90 in1012.5 mb 0.00 in0.0 mm 0.00 in0.0 mm 0.01 in0.3 mm
02:30 AM 63.1°F17.3°C 62.9°F17.2°C 99% 0.7 mph S1.1 kmh S 2.2 mph3.5 kmh 29.91 in1012.9 mb 0.01 in0.3 mm 0.06 in1.5 mm 0.02 in0.5 mm
02:40 AM 63.1°F17.3°C 62.9°F17.2°C 99% 1.6 mph SW2.6 kmh SW 2.2 mph3.5 kmh 29.90 in1012.5 mb 0.01 in0.3 mm 0.00 in0.0 mm 0.02 in0.5 mm
02:50 AM 63.1°F17.3°C 62.9°F17.2°C 99% 0.7 mph SW1.1 kmh SW 3.8 mph6.1 kmh 29.91 in1012.9 mb 0.01 in0.3 mm 0.00 in0.0 mm 0.02 in0.5 mm
03:00 AM 63.0°F17.2°C 62.7°F17.1°C 99% 0.7 mph SW1.1 kmh SW 3.1 mph5.0 kmh 29.91 in1012.9 mb 0.01 in0.3 mm 0.00 in0.0 mm 0.02 in0.5 mm
03:10 AM 62.6°F17.0°C 62.3°F16.8°C 99% Calm Calm 1.6 mph2.6 kmh 29.91 in1012.9 mb 0.01 in0.3 mm 0.00 in0.0 mm 0.02 in0.5 mm
03:20 AM 62.6°F17.0°C 62.3°F16.8°C 99% Calm Calm 2.2 mph3.5 kmh 29.91 in1012.9 mb 0.01 in0.3 mm 0.00 in0.0 mm 0.02 in0.5 mm
03:30 AM 62.6°F17.0°C 62.3°F16.8°C 99% Calm Calm 1.6 mph2.6 kmh 29.92 in1013.2 mb 0.00 in0.0 mm 0.00 in0.0 mm 0.02 in0.5 mm
03:40 AM 62.6°F17.0°C 62.3°F16.8°C 99% Calm Calm 1.6 mph2.6 kmh 29.91 in1012.9 mb 0.00 in0.0 mm 0.00 in0.0 mm 0.02 in0.5 mm
03:50 AM 62.6°F17.0°C 62.3°F16.8°C 99% 0.7 mph NW1.1 kmh NW 1.6 mph2.6 kmh 29.91 in1012.9 mb 0.00 in0.0 mm 0.00 in0.0 mm 0.02 in0.5 mm
04:00 AM 62.6°F17.0°C 62.3°F16.8°C 99% Calm Calm 1.6 mph2.6 kmh 29.92 in1013.2 mb 0.00 in0.0 mm 0.00 in0.0 mm 0.02 in0.5 mm
04:10 AM 62.6°F17.0°C 62.3°F16.8°C 99% Calm Calm 0.7 mph1.1 kmh 29.93 in1013.5 mb 0.00 in0.0 mm 0.00 in0.0 mm 0.02 in0.5 mm
04:20 AM 62.6°F17.0°C 62.3°F16.8°C 99% Calm Calm 1.6 mph2.6 kmh 29.93 in1013.5 mb 0.00 in0.0 mm 0.00 in0.0 mm 0.02 in0.5 mm
04:30 AM 62.4°F16.9°C 62.2°F16.8°C 99% Calm Calm 1.6 mph2.6 kmh 29.93 in1013.5 mb 0.00 in0.0 mm 0.00 in0.0 mm 0.02 in0.5 mm
04:40 AM 62.2°F16.8°C 62.0°F16.7°C 99% Calm Calm 0.7 mph1.1 kmh 29.93 in1013.5 mb 0.00 in0.0 mm 0.00 in0.0 mm 0.02 in0.5 mm
04:50 AM 62.2°F16.8°C 62.0°F16.7°C 99% Calm Calm 0.7 mph1.1 kmh 29.93 in1013.5 mb 0.00 in0.0 mm 0.00 in0.0 mm 0.02 in0.5 mm
05:00 AM 62.2°F16.8°C 62.0°F16.7°C 99% Calm Calm 1.6 mph2.6 kmh 29.93 in1013.5 mb 0.00 in0.0 mm 0.00 in0.0 mm 0.02 in0.5 mm
05:10 AM 62.1°F16.7°C 61.8°F16.6°C 99% 0.7 mph W1.1 kmh W 1.6 mph2.6 kmh 29.93 in1013.5 mb 0.00 in0.0 mm 0.00 in0.0 mm 0.02 in0.5 mm
05:20 AM 61.9°F16.6°C 61.6°F16.4°C 99% 0.7 mph WNW1.1 kmh WNW 2.2 mph3.5 kmh 29.94 in1013.9 mb 0.00 in0.0 mm 0.00 in0.0 mm 0.02 in0.5 mm
05:30 AM 61.7°F16.5°C 61.4°F16.3°C 99% 0.7 mph SE1.1 kmh SE 1.6 mph2.6 kmh 29.94 in1013.9 mb 0.00 in0.0 mm 0.00 in0.0 mm 0.02 in0.5 mm
05:40 AM 61.5°F16.4°C 61.3°F16.3°C 99% Calm Calm 1.6 mph2.6 kmh 29.95 in1014.2 mb 0.00 in0.0 mm 0.00 in0.0 mm 0.02 in0.5 mm
05:50 AM 61.5°F16.4°C 61.3°F16.3°C 99% Calm Calm 2.2 mph3.5 kmh 29.95 in1014.2 mb 0.01 in0.3 mm 0.06 in1.5 mm 0.04 in1.0 mm
06:00 AM 61.7°F16.5°C 61.1°F16.2°C 98% 0.7 mph WSW1.1 kmh WSW 3.1 mph5.0 kmh 29.96 in1014.6 mb 0.01 in0.3 mm 0.00 in0.0 mm 0.04 in1.0 mm
06:10 AM 61.7°F16.5°C 60.9°F16.1°C 97% Calm Calm 1.6 mph2.6 kmh 29.96 in1014.6 mb 0.01 in0.3 mm 0.00 in0.0 mm 0.04 in1.0 mm
06:20 AM 61.7°F16.5°C 60.6°F15.9°C 96% 0.7 mph W1.1 kmh W 2.2 mph3.5 kmh 29.96 in1014.6 mb 0.01 in0.3 mm 0.00 in0.0 mm 0.04 in1.0 mm
06:30 AM 61.7°F16.5°C 60.3°F15.7°C 95% Calm Calm 1.6 mph2.6 kmh 29.96 in1014.6 mb 0.01 in0.3 mm 0.00 in0.0 mm 0.04 in1.0 mm
06:40 AM 61.7°F16.5°C 60.0°F15.6°C 94% Calm Calm 1.6 mph2.6 kmh 29.96 in1014.6 mb 0.01 in0.3 mm 0.00 in0.0 mm 0.04 in1.0 mm
06:50 AM 61.9°F16.6°C 59.9°F15.5°C 93% Calm Calm 0.7 mph1.1 kmh 29.97 in1014.9 mb 0.00 in0.0 mm 0.00 in0.0 mm 0.04 in1.0 mm
07:00 AM 62.6°F17.0°C 60.6°F15.9°C 93% Calm Calm 1.6 mph2.6 kmh 29.98 in1015.2 mb 0.00 in0.0 mm 0.00 in0.0 mm 0.04 in1.0 mm
07:10 AM 63.5°F17.5°C 59.9°F15.5°C 88% Calm Calm 1.6 mph2.6 kmh 29.97 in1014.9 mb 0.00 in0.0 mm 0.00 in0.0 mm 0.04 in1.0 mm
07:20 AM 63.9°F17.7°C 59.6°F15.3°C 86% Calm Calm 0.7 mph1.1 kmh 29.98 in1015.2 mb 0.00 in0.0 mm 0.00 in0.0 mm 0.04 in1.0 mm
07:30 AM 63.7°F17.6°C 58.4°F14.7°C 83% Calm Calm 1.6 mph2.6 kmh 29.98 in1015.2 mb 0.00 in0.0 mm 0.00 in0.0 mm 0.04 in1.0 mm
07:40 AM 64.0°F17.8°C 58.5°F14.7°C 82% 0.7 mph NW1.1 kmh NW 2.2 mph3.5 kmh 29.99 in1015.6 mb 0.00 in0.0 mm 0.00 in0.0 mm 0.04 in1.0 mm
07:50 AM 64.2°F17.9°C 58.3°F14.6°C 81% 0.7 mph NW1.1 kmh NW 2.2 mph3.5 kmh 29.99 in1015.6 mb 0.00 in0.0 mm 0.00 in0.0 mm 0.04 in1.0 mm
08:00 AM 65.7°F18.7°C 59.7°F15.4°C 81% Calm Calm 1.6 mph2.6 kmh 29.99 in1015.6 mb 0.00 in0.0 mm 0.00 in0.0 mm 0.04 in1.0 mm
08:10 AM 68.5°F20.3°C 61.4°F16.3°C 78% Calm Calm 1.6 mph2.6 kmh 29.99 in1015.6 mb 0.00 in0.0 mm 0.00 in0.0 mm 0.04 in1.0 mm
08:20 AM 67.3°F19.6°C 58.7°F14.8°C 74% Calm Calm 2.2 mph3.5 kmh 29.99 in1015.6 mb 0.00 in0.0 mm 0.00 in0.0 mm 0.04 in1.0 mm
08:30 AM 68.4°F20.2°C 59.0°F15.0°C 72% 0.7 mph NW1.1 kmh NW 1.6 mph2.6 kmh 30.00 in1015.9 mb 0.00 in0.0 mm 0.00 in0.0 mm 0.04 in1.0 mm
08:40 AM 71.2°F21.8°C 61.0°F16.1°C 70% 0.7 mph SW1.1 kmh SW 2.2 mph3.5 kmh 29.99 in1015.6 mb 0.00 in0.0 mm 0.00 in0.0 mm 0.04 in1.0 mm
08:50 AM 71.1°F21.7°C 58.7°F14.8°C 65% 0.7 mph NNW1.1 kmh NNW 3.1 mph5.0 kmh 30.00 in1015.9 mb 0.00 in0.0 mm 0.00 in0.0 mm 0.04 in1.0 mm
09:00 AM 69.4°F20.8°C 58.4°F14.7°C 68% 1.6 mph SW2.6 kmh SW 3.1 mph5.0 kmh 30.00 in1015.9 mb 0.00 in0.0 mm 0.00 in0.0 mm 0.04 in1.0 mm
09:10 AM 67.5°F19.7°C 57.4°F14.1°C 70% 0.7 mph N1.1 kmh N 3.1 mph5.0 kmh 30.00 in1015.9 mb 0.00 in0.0 mm 0.00 in0.0 mm 0.04 in1.0 mm
09:20 AM 66.0°F18.9°C 57.1°F13.9°C 73% Calm Calm 4.5 mph7.2 kmh 30.01 in1016.3 mb 0.00 in0.0 mm 0.00 in0.0 mm 0.04 in1.0 mm
09:30 AM 66.9°F19.4°C 58.0°F14.4°C 73% 0.7 mph NE1.1 kmh NE 2.2 mph3.5 kmh 30.02 in1016.6 mb 0.00 in0.0 mm 0.00 in0.0 mm 0.04 in1.0 mm
09:40 AM 65.8°F18.8°C 57.0°F13.9°C 73% 0.7 mph SW1.1 kmh SW 3.1 mph5.0 kmh 30.02 in1016.6 mb 0.00 in0.0 mm 0.00 in0.0 mm 0.04 in1.0 mm
09:50 AM 63.7°F17.6°C 55.6°F13.1°C 75% Calm Calm 3.1 mph5.0 kmh 30.03 in1016.9 mb 0.04 in1.0 mm 0.24 in6.1 mm 0.07 in1.8 mm
10:00 AM 63.9°F17.7°C 56.9°F13.8°C 78% 0.7 mph W1.1 kmh W 1.6 mph2.6 kmh 30.03 in1016.9 mb 0.04 in1.0 mm 0.00 in0.0 mm 0.07 in1.8 mm
10:10 AM 69.6°F20.9°C 63.2°F17.3°C 80% Calm Calm 1.6 mph2.6 kmh 30.03 in1016.9 mb 0.04 in1.0 mm 0.00 in0.0 mm 0.07 in1.8 mm
10:20 AM 68.4°F20.2°C 58.2°F14.6°C 70% 0.7 mph SW1.1 kmh SW 2.2 mph3.5 kmh 30.03 in1016.9 mb 0.04 in1.0 mm 0.00 in0.0 mm 0.07 in1.8 mm
10:30 AM 64.9°F18.3°C 55.7°F13.2°C 72% Calm Calm 2.2 mph3.5 kmh 30.03 in1016.9 mb 0.04 in1.0 mm 0.00 in0.0 mm 0.07 in1.8 mm
10:40 AM 67.5°F19.7°C 60.0°F15.6°C 77% 0.7 mph SW1.1 kmh SW 1.6 mph2.6 kmh 30.03 in1016.9 mb 0.04 in1.0 mm 0.00 in0.0 mm 0.07 in1.8 mm
10:50 AM 70.9°F21.6°C 56.3°F13.5°C 60% 1.6 mph SW2.6 kmh SW 3.1 mph5.0 kmh 30.04 in1017.3 mb 0.00 in0.0 mm 0.00 in0.0 mm 0.07 in1.8 mm
11:00 AM 71.1°F21.7°C 53.6°F12.0°C 54% 0.7 mph S1.1 kmh S 3.1 mph5.0 kmh 30.04 in1017.3 mb 0.00 in0.0 mm 0.00 in0.0 mm 0.07 in1.8 mm
11:10 AM 67.5°F19.7°C 53.6°F12.0°C 61% 3.1 mph NW5.0 kmh NW 3.8 mph6.1 kmh 30.04 in1017.3 mb 0.00 in0.0 mm 0.00 in0.0 mm 0.07 in1.8 mm
11:20 AM 65.7°F18.7°C 54.4°F12.4°C 67% 1.6 mph SSW2.6 kmh SSW 5.4 mph8.7 kmh 30.05 in1017.6 mb 0.00 in0.0 mm 0.00 in0.0 mm 0.07 in1.8 mm
11:30 AM 66.6°F19.2°C 53.6°F12.0°C 63% 2.2 mph S3.5 kmh S 3.8 mph6.1 kmh 30.06 in1017.9 mb 0.00 in0.0 mm 0.00 in0.0 mm 0.07 in1.8 mm
11:40 AM 66.7°F19.3°C 55.5°F13.1°C 67% 0.7 mph SSW1.1 kmh SSW 3.8 mph6.1 kmh 30.05 in1017.6 mb 0.00 in0.0 mm 0.00 in0.0 mm 0.07 in1.8 mm
11:50 AM 65.8°F18.8°C 54.2°F12.3°C 66% 1.6 mph SW2.6 kmh SW 4.5 mph7.2 kmh 30.06 in1017.9 mb 0.00 in0.0 mm 0.00 in0.0 mm 0.07 in1.8 mm
12:00 PM 64.8°F18.2°C 54.8°F12.7°C 70% 0.7 mph SW1.1 kmh SW 3.8 mph6.1 kmh 30.06 in1017.9 mb 0.00 in0.0 mm 0.00 in0.0 mm 0.07 in1.8 mm
12:10 PM 66.0°F18.9°C 56.4°F13.6°C 71% 0.7 mph W1.1 kmh W 3.8 mph6.1 kmh 30.06 in1017.9 mb 0.00 in0.0 mm 0.00 in0.0 mm 0.07 in1.8 mm
12:20 PM 72.1°F22.3°C 58.0°F14.4°C 61% 2.2 mph SW3.5 kmh SW 3.1 mph5.0 kmh 30.06 in1017.9 mb 0.00 in0.0 mm 0.00 in0.0 mm 0.07 in1.8 mm
12:30 PM 70.5°F21.4°C 55.1°F12.8°C 58% 0.7 mph SW1.1 kmh SW 6.0 mph9.7 kmh 30.06 in1017.9 mb 0.00 in0.0 mm 0.00 in0.0 mm 0.07 in1.8 mm
12:40 PM 67.8°F19.9°C 54.3°F12.4°C 62% 0.7 mph WSW1.1 kmh WSW 3.1 mph5.0 kmh 30.06 in1017.9 mb 0.00 in0.0 mm 0.00 in0.0 mm 0.07 in1.8 mm
12:50 PM 69.1°F20.6°C 55.5°F13.1°C 62% 1.6 mph S2.6 kmh S 3.8 mph6.1 kmh 30.07 in1018.3 mb 0.00 in0.0 mm 0.00 in0.0 mm 0.07 in1.8 mm
01:00 PM 69.6°F20.9°C 54.2°F12.3°C 58% 1.6 mph WSW2.6 kmh WSW 6.9 mph11.1 kmh 30.07 in1018.3 mb 0.00 in0.0 mm 0.00 in0.0 mm 0.07 in1.8 mm
01:10 PM 67.8°F19.9°C 51.6°F10.9°C 56% 1.6 mph ESE2.6 kmh ESE 3.1 mph5.0 kmh 30.07 in1018.3 mb 0.00 in0.0 mm 0.00 in0.0 mm 0.07 in1.8 mm
01:20 PM 69.1°F20.6°C 54.6°F12.6°C 60% 1.6 mph SW2.6 kmh SW 4.5 mph7.2 kmh 30.07 in1018.3 mb 0.00 in0.0 mm 0.00 in0.0 mm 0.07 in1.8 mm
01:30 PM 71.4°F21.9°C 53.9°F12.2°C 54% 3.1 mph SW5.0 kmh SW 6.0 mph9.7 kmh 30.07 in1018.3 mb 0.00 in0.0 mm 0.00 in0.0 mm 0.07 in1.8 mm
01:40 PM 72.3°F22.4°C 54.3°F12.4°C 53% 1.6 mph SW2.6 kmh SW 5.4 mph8.7 kmh 30.09 in1019.0 mb 0.00 in0.0 mm 0.00 in0.0 mm 0.07 in1.8 mm
01:50 PM 73.0°F22.8°C 53.3°F11.8°C 50% 1.6 mph WSW2.6 kmh WSW 3.1 mph5.0 kmh 30.08 in1018.6 mb 0.00 in0.0 mm 0.00 in0.0 mm 0.07 in1.8 mm
02:00 PM 71.2°F21.8°C 52.7°F11.5°C 52% 1.6 mph SSW2.6 kmh SSW 3.8 mph6.1 kmh 30.08 in1018.6 mb 0.00 in0.0 mm 0.00 in0.0 mm 0.07 in1.8 mm
02:10 PM 70.0°F21.1°C 52.6°F11.4°C 54% 1.6 mph NW2.6 kmh NW 3.8 mph6.1 kmh 30.08 in1018.6 mb 0.00 in0.0 mm 0.00 in0.0 mm 0.07 in1.8 mm
02:20 PM 69.8°F21.0°C 51.9°F11.1°C 53% 3.1 mph SW5.0 kmh SW 4.5 mph7.2 kmh 30.08 in1018.6 mb 0.00 in0.0 mm 0.00 in0.0 mm 0.07 in1.8 mm
02:30 PM 71.4°F21.9°C 53.4°F11.9°C 53% 2.2 mph WSW3.5 kmh WSW 5.4 mph8.7 kmh 30.08 in1018.6 mb 0.00 in0.0 mm 0.00 in0.0 mm 0.07 in1.8 mm
02:40 PM 70.7°F21.5°C 52.2°F11.2°C 52% 2.2 mph SW3.5 kmh SW 3.8 mph6.1 kmh 30.08 in1018.6 mb 0.00 in0.0 mm 0.00 in0.0 mm 0.07 in1.8 mm
02:50 PM 68.5°F20.3°C 50.8°F10.4°C 53% 3.1 mph SW5.0 kmh SW 4.5 mph7.2 kmh 30.09 in1019.0 mb 0.00 in0.0 mm 0.00 in0.0 mm 0.07 in1.8 mm
03:00 PM 66.9°F19.4°C 50.7°F10.4°C 56% 0.7 mph SW1.1 kmh SW 4.5 mph7.2 kmh 30.08 in1018.6 mb 0.00 in0.0 mm 0.00 in0.0 mm 0.07 in1.8 mm
03:10 PM 69.8°F21.0°C 52.4°F11.3°C 54% 0.7 mph E1.1 kmh E 3.8 mph6.1 kmh 30.08 in1018.6 mb 0.00 in0.0 mm 0.00 in0.0 mm 0.07 in1.8 mm
03:20 PM 72.5°F22.5°C 50.0°F10.0°C 45% 1.6 mph NE2.6 kmh NE 6.9 mph11.1 kmh 30.08 in1018.6 mb 0.00 in0.0 mm 0.00 in0.0 mm 0.07 in1.8 mm
03:30 PM 72.5°F22.5°C 50.6°F10.3°C 46% 0.7 mph SW1.1 kmh SW 5.4 mph8.7 kmh 30.09 in1019.0 mb 0.00 in0.0 mm 0.00 in0.0 mm 0.07 in1.8 mm
03:40 PM 69.8°F21.0°C 49.2°F9.6°C 48% 1.6 mph S2.6 kmh S 6.0 mph9.7 kmh 30.09 in1019.0 mb 0.00 in0.0 mm 0.00 in0.0 mm 0.07 in1.8 mm
03:50 PM 67.1°F19.5°C 48.4°F9.1°C 51% 0.7 mph WSW1.1 kmh WSW 5.4 mph8.7 kmh 30.08 in1018.6 mb 0.00 in0.0 mm 0.00 in0.0 mm 0.07 in1.8 mm
04:00 PM 66.0°F18.9°C 51.3°F10.7°C 59% 1.6 mph WSW2.6 kmh WSW 4.5 mph7.2 kmh 30.09 in1019.0 mb 0.00 in0.0 mm 0.00 in0.0 mm 0.07 in1.8 mm
04:10 PM 64.8°F18.2°C 51.5°F10.8°C 62% 1.6 mph SSW2.6 kmh SSW 4.5 mph7.2 kmh 30.09 in1019.0 mb 0.00 in0.0 mm 0.00 in0.0 mm 0.07 in1.8 mm
04:20 PM 64.6°F18.1°C 51.7°F10.9°C 63% 2.2 mph W3.5 kmh W 4.5 mph7.2 kmh 30.10 in1019.3 mb 0.00 in0.0 mm 0.00 in0.0 mm 0.07 in1.8 mm
04:30 PM 64.0°F17.8°C 50.8°F10.4°C 62% 1.6 mph WSW2.6 kmh WSW 4.5 mph7.2 kmh 30.09 in1019.0 mb 0.00 in0.0 mm 0.00 in0.0 mm 0.07 in1.8 mm
04:40 PM 64.0°F17.8°C 51.2°F10.7°C 63% 0.7 mph SW1.1 kmh SW 3.8 mph6.1 kmh 30.10 in1019.3 mb 0.00 in0.0 mm 0.00 in0.0 mm 0.07 in1.8 mm
04:50 PM 64.6°F18.1°C 51.7°F10.9°C 63% 0.7 mph SW1.1 kmh SW 3.1 mph5.0 kmh 30.09 in1019.0 mb 0.00 in0.0 mm 0.00 in0.0 mm 0.07 in1.8 mm
05:00 PM 63.9°F17.7°C 50.2°F10.1°C 61% 2.2 mph SE3.5 kmh SE 3.1 mph5.0 kmh 30.10 in1019.3 mb 0.00 in0.0 mm 0.00 in0.0 mm 0.07 in1.8 mm
05:10 PM 63.5°F17.5°C 51.1°F10.6°C 64% 0.7 mph SW1.1 kmh SW 3.1 mph5.0 kmh 30.10 in1019.3 mb 0.00 in0.0 mm 0.00 in0.0 mm 0.07 in1.8 mm
05:20 PM 63.3°F17.4°C 53.0°F11.7°C 69% 1.6 mph SW2.6 kmh SW 3.1 mph5.0 kmh 30.10 in1019.3 mb 0.00 in0.0 mm 0.00 in0.0 mm 0.07 in1.8 mm
05:30 PM 63.3°F17.4°C 52.6°F11.4°C 68% 1.6 mph SW2.6 kmh SW 4.5 mph7.2 kmh 30.11 in1019.6 mb 0.00 in0.0 mm 0.00 in0.0 mm 0.07 in1.8 mm
05:40 PM 63.3°F17.4°C 53.0°F11.7°C 69% 0.7 mph NW1.1 kmh NW 3.1 mph5.0 kmh 30.10 in1019.3 mb 0.00 in0.0 mm 0.00 in0.0 mm 0.07 in1.8 mm
05:50 PM 62.8°F17.1°C 52.1°F11.2°C 68% 1.6 mph WSW2.6 kmh WSW 3.1 mph5.0 kmh 30.10 in1019.3 mb 0.00 in0.0 mm 0.00 in0.0 mm 0.07 in1.8 mm
06:00 PM 62.1°F16.7°C 51.0°F10.6°C 67% 0.7 mph WSW1.1 kmh WSW 2.2 mph3.5 kmh 30.11 in1019.6 mb 0.00 in0.0 mm 0.00 in0.0 mm 0.07 in1.8 mm
06:10 PM 61.5°F16.4°C 50.9°F10.5°C 68% 0.7 mph SSW1.1 kmh SSW 2.2 mph3.5 kmh 30.10 in1019.3 mb 0.00 in0.0 mm 0.00 in0.0 mm 0.07 in1.8 mm
06:20 PM 60.8°F16.0°C 51.0°F10.6°C 70% Calm Calm 2.2 mph3.5 kmh 30.11 in1019.6 mb 0.00 in0.0 mm 0.00 in0.0 mm 0.07 in1.8 mm
06:30 PM 60.1°F15.6°C 50.3°F10.2°C 70% Calm Calm 1.6 mph2.6 kmh 30.10 in1019.3 mb 0.00 in0.0 mm 0.00 in0.0 mm 0.07 in1.8 mm
06:40 PM 59.5°F15.3°C 50.1°F10.1°C 71% Calm Calm 0.7 mph1.1 kmh 30.11 in1019.6 mb 0.00 in0.0 mm 0.00 in0.0 mm 0.07 in1.8 mm
06:50 PM 59.0°F15.0°C 49.6°F9.8°C 71% Calm Calm 1.6 mph2.6 kmh 30.11 in1019.6 mb 0.00 in0.0 mm 0.00 in0.0 mm 0.07 in1.8 mm
07:00 PM 58.6°F14.8°C 49.7°F9.8°C 72% Calm Calm 1.6 mph2.6 kmh 30.11 in1019.6 mb 0.00 in0.0 mm 0.00 in0.0 mm 0.07 in1.8 mm
07:10 PM 57.9°F14.4°C 49.0°F9.4°C 72% Calm Calm 0.7 mph1.1 kmh 30.11 in1019.6 mb 0.00 in0.0 mm 0.00 in0.0 mm 0.07 in1.8 mm
07:20 PM 57.0°F13.9°C 48.8°F9.3°C 74% Calm Calm 0.7 mph1.1 kmh 30.12 in1020.0 mb 0.00 in0.0 mm 0.00 in0.0 mm 0.07 in1.8 mm
07:30 PM 55.9°F13.3°C 48.1°F8.9°C 75% Calm Calm -- 30.11 in1019.6 mb 0.00 in0.0 mm 0.00 in0.0 mm 0.07 in1.8 mm
07:40 PM 55.4°F13.0°C 48.3°F9.1°C 77% Calm Calm -- 30.12 in1020.0 mb 0.00 in0.0 mm 0.00 in0.0 mm 0.07 in1.8 mm
07:50 PM 54.7°F12.6°C 48.3°F9.1°C 79% Calm Calm -- 30.12 in1020.0 mb 0.00 in0.0 mm 0.00 in0.0 mm 0.07 in1.8 mm
08:00 PM 54.5°F12.5°C 48.5°F9.2°C 80% Calm Calm -- 30.12 in1020.0 mb 0.00 in0.0 mm 0.00 in0.0 mm 0.07 in1.8 mm
08:10 PM 54.5°F12.5°C 48.5°F9.2°C 80% Calm Calm -- 30.12 in1020.0 mb 0.00 in0.0 mm 0.00 in0.0 mm 0.07 in1.8 mm
08:20 PM 54.9°F12.7°C 49.1°F9.5°C 81% Calm Calm 1.6 mph2.6 kmh 30.13 in1020.3 mb 0.00 in0.0 mm 0.00 in0.0 mm 0.07 in1.8 mm
08:30 PM 55.6°F13.1°C 49.5°F9.7°C 80% Calm Calm 1.6 mph2.6 kmh 30.13 in1020.3 mb 0.00 in0.0 mm 0.00 in0.0 mm 0.07 in1.8 mm
08:40 PM 54.9°F12.7°C 48.5°F9.2°C 79% Calm Calm 0.7 mph1.1 kmh 30.13 in1020.3 mb 0.00 in0.0 mm 0.00 in0.0 mm 0.07 in1.8 mm
08:50 PM 54.1°F12.3°C 49.1°F9.5°C 83% Calm Calm 0.7 mph1.1 kmh 30.13 in1020.3 mb 0.00 in0.0 mm 0.00 in0.0 mm 0.07 in1.8 mm
09:00 PM 53.8°F12.1°C 49.1°F9.5°C 84% Calm Calm -- 30.13 in1020.3 mb 0.00 in0.0 mm 0.00 in0.0 mm 0.07 in1.8 mm
09:10 PM 53.6°F12.0°C 49.2°F9.6°C 85% Calm Calm -- 30.14 in1020.7 mb 0.00 in0.0 mm 0.00 in0.0 mm 0.07 in1.8 mm
09:20 PM 53.2°F11.8°C 48.9°F9.4°C 85% Calm Calm 0.7 mph1.1 kmh 30.13 in1020.3 mb 0.00 in0.0 mm 0.00 in0.0 mm 0.07 in1.8 mm
09:30 PM 53.1°F11.7°C 49.3°F9.6°C 87% Calm Calm 0.7 mph1.1 kmh 30.13 in1020.3 mb 0.00 in0.0 mm 0.00 in0.0 mm 0.07 in1.8 mm
09:40 PM 52.9°F11.6°C 49.1°F9.5°C 87% Calm Calm -- 30.13 in1020.3 mb 0.00 in0.0 mm 0.00 in0.0 mm 0.07 in1.8 mm
09:50 PM 52.9°F11.6°C 49.4°F9.7°C 88% Calm Calm 1.6 mph2.6 kmh 30.13 in1020.3 mb 0.00 in0.0 mm 0.00 in0.0 mm 0.07 in1.8 mm
10:00 PM 52.7°F11.5°C 49.6°F9.8°C 89% 0.7 mph ESE1.1 kmh ESE 2.2 mph3.5 kmh 30.13 in1020.3 mb 0.00 in0.0 mm 0.00 in0.0 mm 0.07 in1.8 mm
10:10 PM 52.5°F11.4°C 49.7°F9.8°C 90% Calm Calm 2.2 mph3.5 kmh 30.14 in1020.7 mb 0.00 in0.0 mm 0.00 in0.0 mm 0.07 in1.8 mm
10:20 PM 52.3°F11.3°C 49.5°F9.7°C 90% 0.7 mph NE1.1 kmh NE 2.2 mph3.5 kmh 30.14 in1020.7 mb 0.00 in0.0 mm 0.00 in0.0 mm 0.07 in1.8 mm
10:30 PM 52.3°F11.3°C 49.5°F9.7°C 90% 1.6 mph ENE2.6 kmh ENE 2.2 mph3.5 kmh 30.14 in1020.7 mb 0.00 in0.0 mm 0.00 in0.0 mm 0.07 in1.8 mm
10:40 PM 52.2°F11.2°C 49.3°F9.6°C 90% Calm Calm 2.2 mph3.5 kmh 30.14 in1020.7 mb 0.00 in0.0 mm 0.00 in0.0 mm 0.07 in1.8 mm
10:50 PM 52.3°F11.3°C 49.8°F9.9°C 91% Calm Calm 1.6 mph2.6 kmh 30.14 in1020.7 mb 0.00 in0.0 mm 0.00 in0.0 mm 0.07 in1.8 mm
11:00 PM 52.5°F11.4°C 50.0°F10.0°C 91% 0.7 mph NNE1.1 kmh NNE 1.6 mph2.6 kmh 30.14 in1020.7 mb 0.00 in0.0 mm 0.00 in0.0 mm 0.07 in1.8 mm
11:10 PM 52.0°F11.1°C 49.1°F9.5°C 90% Calm Calm 1.6 mph2.6 kmh 30.14 in1020.7 mb 0.00 in0.0 mm 0.00 in0.0 mm 0.07 in1.8 mm
11:20 PM 52.2°F11.2°C 49.6°F9.8°C 91% Calm Calm 1.6 mph2.6 kmh 30.14 in1020.7 mb 0.00 in0.0 mm 0.00 in0.0 mm 0.07 in1.8 mm
11:30 PM 51.8°F11.0°C 49.3°F9.6°C 91% Calm Calm 1.6 mph2.6 kmh 30.15 in1021.0 mb 0.00 in0.0 mm 0.00 in0.0 mm 0.07 in1.8 mm
11:40 PM 51.8°F11.0°C 49.3°F9.6°C 91% 0.7 mph E1.1 kmh E 2.2 mph3.5 kmh 30.14 in1020.7 mb 0.00 in0.0 mm 0.00 in0.0 mm 0.07 in1.8 mm
11:50 PM 51.6°F10.9°C 49.1°F9.5°C 91% 0.7 mph NE1.1 kmh NE 1.6 mph2.6 kmh 30.14 in1020.7 mb 0.00 in0.0 mm 0.00 in0.0 mm 0.07 in1.8 mm